High temp

Not for real navigation. The accuracy of this data is not assured See disclaimer for more information



ICAO NAME COUNTRY WIND Kt GUST Kt VIS m TEMP/DEW C BARO METAR
KVTI Vinton, Vinton Veterans Memori IA United States 0 0 9999 59/58 29.91 KVTI 271335Z AUTO 00000KT M0.25SM FG OVC001 59/58 A2991 RMK AO2
OPSK Sukkur Pakistan 10 0 4000 47/19 29.92 OPSK 271300Z 18010KT 4000 HZ NSC 47/19 Q992 NOSIG
OIZI Iranshahr Iran 12 0 9999 46/4 29.62 OIZI 271300Z 27012KT CAVOK 46/04 Q1003
OEKJ 2 0 9999 46/6 29.80 OEKJ 271200Z VRB02KT CAVOK 46/06 Q1009
OIAG Omidieh Iran 16 0 4500 46/11 29.62 OIAG 271300Z 31016KT 4500 DU NSC 46/11 Q1003

Show more